Time;durP1;ratioP1;P1;durP2;ratioP2;P2;SDS_P1;SDS_P2;PMS_P1;PMS_P2;Temp;Humidity;BMP_temperature;BMP_pressure;BME280_temperature;BME280_humidity;BME280_pressure;Samples;Min_cycle;Max_cycle;Signal;HPM_P1;HPM_P2
2020/12/22 00:02:14;;;;;;;199.77;106.37;;;;;;;;;;4386263;32;20245;-57
2020/12/22 00:04:40;;;;;;;208.47;107.90;;;;;;;;;;4384711;32;20662;-57
2020/12/22 00:07:05;;;;;;;202.00;106.23;;;;;;;;;;4383829;32;20840;-57
2020/12/22 00:09:31;;;;;;;202.23;106.50;;;;;;;;;;4370911;32;20272;-57
2020/12/22 00:11:56;;;;;;;191.80;105.23;;;;;;;;;;4379541;32;20619;-57
2020/12/22 00:14:21;;;;;;;187.87;101.30;;;;;;;;;;4382403;32;20319;-58
2020/12/22 00:16:47;;;;;;;207.53;104.50;;;;;;;;;;4366124;32;20595;-58
2020/12/22 00:19:12;;;;;;;218.17;111.63;;;;;;;;;;4368793;32;20660;-58
2020/12/22 00:21:38;;;;;;;214.83;113.00;;;;;;;;;;4377609;32;20324;-59
2020/12/22 00:24:04;;;;;;;248.03;124.13;;;;;;;;;;4376989;32;20209;-58
2020/12/22 00:26:29;;;;;;;266.63;130.83;;;;;;;;;;4370231;32;20308;-59
2020/12/22 00:28:55;;;;;;;267.87;135.07;;;;;;;;;;4375966;32;20242;-59
2020/12/22 00:31:21;;;;;;;285.97;141.00;;;;;;;;;;4370763;32;20671;-59
2020/12/22 00:33:46;;;;;;;319.73;155.10;;;;;;;;;;4381492;32;20331;-59
2020/12/22 00:36:11;;;;;;;328.03;169.87;;;;;;;;;;4371125;32;20242;-59
2020/12/22 00:38:37;;;;;;;366.17;205.10;;;;;;;;;;4374442;32;20240;-58
2020/12/22 00:41:03;;;;;;;353.03;203.90;;;;;;;;;;4378460;32;20635;-59
2020/12/22 00:43:28;;;;;;;349.93;197.60;;;;;;;;;;4378859;32;20343;-59
2020/12/22 00:45:54;;;;;;;342.90;196.63;;;;;;;;;;4367391;32;20329;-57
2020/12/22 00:48:20;;;;;;;355.93;201.83;;;;;;;;;;4379760;32;20813;-57
2020/12/22 00:50:45;;;;;;;355.87;195.33;;;;;;;;;;4363320;32;20841;-57
2020/12/22 00:53:11;;;;;;;342.17;190.63;;;;;;;;;;4369401;32;20320;-57
2020/12/22 00:55:36;;;;;;;346.93;196.37;;;;;;;;;;4373741;32;20210;-57
2020/12/22 00:58:01;;;;;;;329.53;180.10;;;;;;;;;;4381378;32;20364;-57
2020/12/22 01:00:27;;;;;;;298.70;161.53;;;;;;;;;;4376104;32;20368;-57
2020/12/22 01:02:52;;;;;;;289.23;156.13;;;;;;;;;;4381358;32;20349;-59
2020/12/22 01:05:18;;;;;;;264.53;148.90;;;;;;;;;;4375285;32;20214;-57
2020/12/22 01:07:43;;;;;;;267.33;152.50;;;;;;;;;;4382424;32;20285;-56
2020/12/22 01:10:09;;;;;;;302.73;168.90;;;;;;;;;;4380201;32;20374;-57
2020/12/22 01:12:34;;;;;;;293.57;156.53;;;;;;;;;;4381329;32;20297;-59
2020/12/22 01:15:00;;;;;;;283.97;153.90;;;;;;;;;;4378593;32;20599;-58
2020/12/22 01:17:25;;;;;;;283.57;151.83;;;;;;;;;;4384221;32;20230;-57
2020/12/22 01:19:53;;;;;;;280.47;157.53;;;;;;;;;;4375030;32;20233;-57
2020/12/22 01:22:18;;;;;;;295.33;159.80;;;;;;;;;;4383526;32;20324;-57
2020/12/22 01:24:44;;;;;;;307.67;165.37;;;;;;;;;;4377784;32;20230;-57
2020/12/22 01:27:09;;;;;;;315.97;168.23;;;;;;;;;;4387490;32;20293;-57
2020/12/22 01:29:35;;;;;;;324.30;178.10;;;;;;;;;;4384525;32;20355;-57
2020/12/22 01:32:00;;;;;;;324.30;178.80;;;;;;;;;;4385530;32;20217;-57
2020/12/22 01:34:25;;;;;;;325.90;171.93;;;;;;;;;;4385552;32;20273;-57
2020/12/22 01:36:51;;;;;;;315.70;171.60;;;;;;;;;;4387327;32;20236;-57
2020/12/22 01:39:16;;;;;;;324.77;173.30;;;;;;;;;;4387542;32;20260;-59
2020/12/22 01:41:42;;;;;;;295.90;160.47;;;;;;;;;;4387024;32;20198;-59
2020/12/22 01:44:15;;;;;;;267.50;142.40;;;;;;;;;;4387228;32;20330;-59
2020/12/22 01:46:49;;;;;;;227.40;127.40;;;;;;;;;;4386184;32;20226;-57
2020/12/22 01:49:19;;;;;;;216.20;115.77;;;;;;;;;;4387591;32;20216;-57
2020/12/22 01:51:46;;;;;;;185.07;97.03;;;;;;;;;;4386524;32;20210;-57
2020/12/22 01:54:13;;;;;;;191.10;98.90;;;;;;;;;;4387751;32;20218;-57
2020/12/22 01:56:39;;;;;;;199.93;103.03;;;;;;;;;;4386335;32;20296;-57
2020/12/22 01:59:05;;;;;;;210.20;103.53;;;;;;;;;;4387395;32;20341;-59
2020/12/22 02:01:32;;;;;;;189.40;94.17;;;;;;;;;;4387290;32;20268;-57
2020/12/22 02:03:59;;;;;;;176.67;94.93;;;;;;;;;;4379447;32;20666;-57
2020/12/22 02:06:24;;;;;;;179.87;94.97;;;;;;;;;;4379535;32;20248;-57
2020/12/22 02:08:50;;;;;;;189.97;99.70;;;;;;;;;;4387427;32;20626;-58
2020/12/22 02:11:26;;;;;;;185.17;98.80;;;;;;;;;;4385305;32;20252;-57
2020/12/22 02:13:53;;;;;;;166.90;93.03;;;;;;;;;;4384327;32;20527;-57
2020/12/22 02:16:19;;;;;;;192.77;100.17;;;;;;;;;;4386985;32;20214;-56
2020/12/22 02:18:46;;;;;;;200.90;100.43;;;;;;;;;;4384659;32;20331;-56
2020/12/22 02:21:12;;;;;;;216.10;106.77;;;;;;;;;;4386477;32;20279;-56
2020/12/22 02:23:37;;;;;;;199.43;100.13;;;;;;;;;;4387279;32;20285;-57
2020/12/22 02:26:02;;;;;;;188.17;92.77;;;;;;;;;;4387378;32;20435;-56
2020/12/22 02:28:28;;;;;;;173.63;89.47;;;;;;;;;;4386201;32;20269;-56
2020/12/22 02:30:59;;;;;;;165.70;83.77;;;;;;;;;;4383661;32;20225;-58
2020/12/22 02:33:24;;;;;;;138.80;73.07;;;;;;;;;;4384153;32;20252;-57
2020/12/22 02:35:50;;;;;;;98.87;58.53;;;;;;;;;;4384442;32;20249;-56
2020/12/22 02:38:18;;;;;;;75.63;47.63;;;;;;;;;;4385890;32;20743;-56
2020/12/22 02:40:44;;;;;;;74.57;44.67;;;;;;;;;;4385176;32;20410;-56
2020/12/22 02:43:11;;;;;;;73.93;45.67;;;;;;;;;;4385783;32;20308;-56
2020/12/22 02:45:38;;;;;;;75.00;44.43;;;;;;;;;;4385579;32;20746;-56
2020/12/22 02:48:03;;;;;;;82.23;47.37;;;;;;;;;;4378511;32;20198;-57
2020/12/22 02:50:29;;;;;;;83.67;46.90;;;;;;;;;;4384666;32;21075;-56
2020/12/22 02:52:55;;;;;;;78.00;43.70;;;;;;;;;;4384292;32;20304;-57
2020/12/22 02:55:20;;;;;;;56.13;36.10;;;;;;;;;;4385555;32;20295;-56
2020/12/22 02:57:45;;;;;;;61.53;37.10;;;;;;;;;;4383071;32;20427;-56
2020/12/22 03:00:11;;;;;;;57.70;36.40;;;;;;;;;;4385648;32;20225;-56
2020/12/22 03:02:37;;;;;;;64.43;37.57;;;;;;;;;;4383414;32;20555;-56
2020/12/22 03:05:02;;;;;;;57.17;38.30;;;;;;;;;;4384663;32;20237;-56
2020/12/22 03:07:28;;;;;;;62.30;37.37;;;;;;;;;;4384037;32;20296;-56
2020/12/22 03:09:53;;;;;;;68.03;39.77;;;;;;;;;;4386027;32;20641;-56
2020/12/22 03:12:18;;;;;;;65.40;40.20;;;;;;;;;;4384964;32;20331;-56
2020/12/22 03:14:44;;;;;;;66.80;40.63;;;;;;;;;;4385926;32;20229;-58
2020/12/22 03:17:09;;;;;;;70.67;43.00;;;;;;;;;;4386469;32;20364;-57
2020/12/22 03:19:37;;;;;;;67.60;42.50;;;;;;;;;;4385471;32;20310;-57
2020/12/22 03:22:04;;;;;;;83.27;45.20;;;;;;;;;;4385419;32;20206;-58
2020/12/22 03:24:29;;;;;;;80.67;48.30;;;;;;;;;;4384718;32;20367;-57
2020/12/22 03:26:54;;;;;;;87.97;54.53;;;;;;;;;;4385825;32;20292;-57
2020/12/22 03:29:20;;;;;;;98.50;59.53;;;;;;;;;;4384695;32;20370;-57
2020/12/22 03:31:45;;;;;;;93.17;62.40;;;;;;;;;;4386346;32;20269;-57
2020/12/22 03:34:11;;;;;;;116.43;66.00;;;;;;;;;;4384736;32;20354;-57
2020/12/22 03:36:36;;;;;;;118.07;69.83;;;;;;;;;;4385435;32;20276;-55
2020/12/22 03:39:02;;;;;;;123.07;71.37;;;;;;;;;;4384979;32;20276;-55
2020/12/22 03:41:27;;;;;;;106.30;69.20;;;;;;;;;;4384526;32;20242;-55
2020/12/22 03:43:53;;;;;;;119.07;70.93;;;;;;;;;;4384384;32;20356;-55
2020/12/22 03:46:19;;;;;;;115.20;71.73;;;;;;;;;;4385564;32;20206;-55
2020/12/22 03:48:44;;;;;;;112.40;68.17;;;;;;;;;;4386212;32;20288;-57
2020/12/22 03:51:10;;;;;;;119.63;70.73;;;;;;;;;;4384955;32;20399;-58
2020/12/22 03:53:36;;;;;;;117.30;72.07;;;;;;;;;;4384000;32;20329;-57
2020/12/22 03:56:01;;;;;;;116.43;72.77;;;;;;;;;;4385810;32;20366;-57
2020/12/22 03:58:27;;;;;;;132.43;79.17;;;;;;;;;;4384043;32;20257;-56
2020/12/22 04:00:52;;;;;;;116.80;73.97;;;;;;;;;;4385126;32;20218;-55
2020/12/22 04:03:18;;;;;;;132.27;76.17;;;;;;;;;;4382159;32;20291;-55
2020/12/22 04:05:43;;;;;;;135.43;79.03;;;;;;;;;;4381743;32;20320;-56
2020/12/22 04:08:09;;;;;;;130.57;80.20;;;;;;;;;;4383991;32;20584;-56
2020/12/22 04:10:34;;;;;;;138.97;80.23;;;;;;;;;;4385487;32;20321;-57
2020/12/22 04:13:00;;;;;;;143.73;82.20;;;;;;;;;;4383923;32;20311;-55
2020/12/22 04:15:25;;;;;;;136.67;75.60;;;;;;;;;;4386064;32;20635;-54
2020/12/22 04:17:51;;;;;;;137.70;78.37;;;;;;;;;;4383821;32;20202;-56
2020/12/22 04:20:16;;;;;;;124.43;75.87;;;;;;;;;;4386115;32;20312;-57
2020/12/22 04:22:42;;;;;;;115.40;67.13;;;;;;;;;;4385247;32;20266;-58
2020/12/22 04:25:07;;;;;;;102.70;63.17;;;;;;;;;;4386758;32;20300;-57
2020/12/22 04:27:32;;;;;;;114.13;67.80;;;;;;;;;;4384233;32;20316;-57
2020/12/22 04:29:58;;;;;;;75.17;48.57;;;;;;;;;;4386508;32;20214;-57
2020/12/22 04:32:23;;;;;;;73.80;45.03;;;;;;;;;;4383241;32;20252;-57
2020/12/22 04:34:50;;;;;;;86.90;48.67;;;;;;;;;;4384985;32;20353;-57
2020/12/22 04:37:16;;;;;;;77.97;48.73;;;;;;;;;;4384382;32;20202;-57
2020/12/22 04:39:41;;;;;;;74.07;42.77;;;;;;;;;;4384856;32;20213;-57
2020/12/22 04:42:08;;;;;;;85.77;47.27;;;;;;;;;;4385411;32;20255;-57
2020/12/22 04:44:33;;;;;;;80.33;46.50;;;;;;;;;;4385910;32;20261;-57
2020/12/22 04:46:59;;;;;;;80.03;48.47;;;;;;;;;;4384515;32;20340;-57
2020/12/22 04:49:26;;;;;;;74.90;47.43;;;;;;;;;;4385747;32;20683;-57
2020/12/22 04:51:52;;;;;;;70.03;43.87;;;;;;;;;;4386331;32;20667;-57
2020/12/22 04:54:19;;;;;;;69.47;44.50;;;;;;;;;;4385954;32;20209;-57
2020/12/22 04:56:46;;;;;;;79.10;48.67;;;;;;;;;;4387672;32;20632;-57
2020/12/22 04:59:15;;;;;;;83.37;49.50;;;;;;;;;;4375408;32;20696;-57
2020/12/22 05:01:44;;;;;;;75.03;44.03;;;;;;;;;;4388508;32;20283;-57
2020/12/22 05:04:13;;;;;;;74.90;46.50;;;;;;;;;;4383963;32;20661;-57
2020/12/22 05:06:39;;;;;;;66.47;41.63;;;;;;;;;;4387981;32;20739;-57
2020/12/22 05:09:05;;;;;;;67.00;41.27;;;;;;;;;;4388112;32;20340;-58
2020/12/22 05:11:34;;;;;;;87.27;48.87;;;;;;;;;;4387818;32;20335;-57
2020/12/22 05:13:59;;;;;;;83.77;49.00;;;;;;;;;;4388612;32;20307;-57
2020/12/22 05:16:26;;;;;;;79.77;47.63;;;;;;;;;;4387509;32;20210;-55
2020/12/22 05:18:54;;;;;;;72.47;46.47;;;;;;;;;;4386722;32;20210;-56
2020/12/22 05:21:20;;;;;;;73.93;44.60;;;;;;;;;;4386433;32;20467;-56
2020/12/22 05:23:50;;;;;;;89.07;46.33;;;;;;;;;;4384447;32;20622;-57
2020/12/22 05:26:23;;;;;;;90.73;50.07;;;;;;;;;;4388041;32;20694;-56
2020/12/22 05:28:49;;;;;;;84.73;46.83;;;;;;;;;;4384531;32;20582;-56
2020/12/22 05:31:16;;;;;;;67.20;38.53;;;;;;;;;;4386254;32;20244;-56
2020/12/22 05:33:43;;;;;;;71.73;44.20;;;;;;;;;;4385972;32;20229;-57
2020/12/22 05:36:08;;;;;;;72.00;41.77;;;;;;;;;;4387812;32;20296;-56
2020/12/22 05:38:35;;;;;;;60.33;35.93;;;;;;;;;;4385742;32;20278;-56
2020/12/22 05:41:03;;;;;;;48.27;31.70;;;;;;;;;;4387466;32;20320;-56
2020/12/22 05:43:42;;;;;;;71.77;45.23;;;;;;;;;;4384167;32;20252;-56
2020/12/22 05:46:08;;;;;;;83.53;48.43;;;;;;;;;;4387040;32;20719;-56
2020/12/22 05:48:35;;;;;;;89.73;53.63;;;;;;;;;;4383670;32;20364;-56
2020/12/22 05:51:03;;;;;;;40.97;27.30;;;;;;;;;;4387515;32;20233;-56
2020/12/22 05:53:29;;;;;;;41.13;26.43;;;;;;;;;;4385440;32;20258;-56
2020/12/22 05:55:54;;;;;;;51.83;32.33;;;;;;;;;;4372568;32;20267;-55
2020/12/22 05:58:20;;;;;;;45.23;30.90;;;;;;;;;;4383888;32;20291;-55
2020/12/22 06:00:45;;;;;;;45.63;29.93;;;;;;;;;;4387934;32;20319;-54
2020/12/22 06:03:15;;;;;;;66.57;41.53;;;;;;;;;;4380586;32;20310;-56
2020/12/22 06:05:46;;;;;;;86.30;47.70;;;;;;;;;;4387361;32;20202;-55
2020/12/22 06:08:14;;;;;;;123.67;65.33;;;;;;;;;;4379894;32;20257;-55
2020/12/22 06:10:41;;;;;;;106.77;58.50;;;;;;;;;;4387399;32;20292;-55
2020/12/22 06:13:08;;;;;;;99.13;51.37;;;;;;;;;;4381828;32;20283;-55
2020/12/22 06:15:34;;;;;;;70.33;38.90;;;;;;;;;;4375422;32;20643;-56
2020/12/22 06:18:03;;;;;;;40.67;23.40;;;;;;;;;;4382019;32;20285;-56
2020/12/22 06:20:30;;;;;;;64.33;35.73;;;;;;;;;;4387108;32;20521;-56
2020/12/22 06:23:18;;;;;;;116.13;63.97;;;;;;;;;;4381671;32;20222;-55
2020/12/22 06:25:44;;;;;;;63.77;39.73;;;;;;;;;;4375913;32;20319;-55
2020/12/22 06:28:31;;;;;;;73.43;42.93;;;;;;;;;;4382314;32;20688;-56
2020/12/22 06:30:56;;;;;;;85.00;52.07;;;;;;;;;;4378123;32;20214;-56
2020/12/22 06:33:24;;;;;;;45.67;29.47;;;;;;;;;;4386383;32;20261;-55
2020/12/22 06:36:01;;;;;;;39.30;24.43;;;;;;;;;;4386477;32;20323;-56
2020/12/22 06:38:55;;;;;;;47.03;27.87;;;;;;;;;;4385309;32;20627;-55
2020/12/22 06:41:35;;;;;;;29.20;19.97;;;;;;;;;;4379585;32;20367;-56
2020/12/22 06:44:14;;;;;;;22.10;16.47;;;;;;;;;;4380649;32;20426;-55
2020/12/22 06:46:41;;;;;;;22.57;16.90;;;;;;;;;;4378944;32;20344;-55
2020/12/22 06:49:08;;;;;;;27.27;18.10;;;;;;;;;;4365538;32;20694;-55
2020/12/22 06:51:39;;;;;;;39.67;26.57;;;;;;;;;;4383405;32;20299;-55
2020/12/22 06:54:13;;;;;;;44.70;27.43;;;;;;;;;;4385433;32;20217;-55
2020/12/22 06:56:47;;;;;;;32.23;22.67;;;;;;;;;;4379725;32;20249;-55
2020/12/22 06:59:33;;;;;;;40.43;27.37;;;;;;;;;;4386566;32;20199;-56
2020/12/22 07:01:58;;;;;;;53.77;32.07;;;;;;;;;;4386536;32;20202;-55
2020/12/22 07:04:24;;;;;;;24.90;17.57;;;;;;;;;;4386595;32;20265;-56
2020/12/22 07:07:02;;;;;;;27.03;17.27;;;;;;;;;;4386505;32;20293;-56
2020/12/22 07:09:29;;;;;;;27.13;18.63;;;;;;;;;;4386763;32;20229;-56
2020/12/22 07:12:08;;;;;;;34.70;23.73;;;;;;;;;;4385978;32;20627;-57
2020/12/22 07:14:36;;;;;;;80.23;45.53;;;;;;;;;;4387032;32;20197;-56
2020/12/22 07:17:03;;;;;;;124.17;66.37;;;;;;;;;;4383222;32;20246;-57
2020/12/22 07:19:30;;;;;;;76.60;42.77;;;;;;;;;;4385367;32;20505;-56
2020/12/22 07:22:01;;;;;;;47.20;32.23;;;;;;;;;;4386096;32;20198;-56
2020/12/22 07:24:27;;;;;;;30.43;19.87;;;;;;;;;;4384379;32;20201;-56
2020/12/22 07:26:53;;;;;;;34.17;20.50;;;;;;;;;;4385990;32;20252;-56
2020/12/22 07:29:19;;;;;;;35.77;23.50;;;;;;;;;;4383264;32;20273;-56
2020/12/22 07:31:45;;;;;;;32.30;21.23;;;;;;;;;;4385241;32;20713;-55
2020/12/22 07:34:11;;;;;;;46.00;29.03;;;;;;;;;;4382362;32;20280;-56
2020/12/22 07:36:36;;;;;;;50.80;32.33;;;;;;;;;;4386138;32;20329;-56
2020/12/22 07:39:21;;;;;;;61.77;38.63;;;;;;;;;;4371317;32;20293;-57
2020/12/22 07:41:47;;;;;;;56.57;35.47;;;;;;;;;;4386139;32;20274;-55
2020/12/22 07:44:23;;;;;;;37.77;23.23;;;;;;;;;;4381270;32;20334;-55
2020/12/22 07:46:53;;;;;;;34.50;20.57;;;;;;;;;;4386164;32;20232;-56
2020/12/22 07:49:19;;;;;;;28.20;19.77;;;;;;;;;;4383927;32;20829;-56
2020/12/22 07:51:48;;;;;;;29.97;17.57;;;;;;;;;;4385435;32;20329;-55
2020/12/22 07:54:14;;;;;;;18.93;14.57;;;;;;;;;;4381086;32;20209;-56
2020/12/22 07:56:42;;;;;;;29.27;16.40;;;;;;;;;;4384416;32;20335;-55
2020/12/22 07:59:09;;;;;;;38.70;26.77;;;;;;;;;;4384908;32;20226;-56
2020/12/22 08:01:47;;;;;;;39.27;25.90;;;;;;;;;;4385525;32;20466;-56
2020/12/22 08:04:18;;;;;;;56.80;31.57;;;;;;;;;;4376075;32;20209;-56
2020/12/22 08:06:58;;;;;;;54.47;33.13;;;;;;;;;;4384298;32;20202;-56
2020/12/22 08:09:31;;;;;;;42.97;26.67;;;;;;;;;;4384668;32;20236;-56
2020/12/22 08:12:08;;;;;;;35.00;23.07;;;;;;;;;;4386595;32;20244;-56
2020/12/22 08:14:42;;;;;;;48.37;29.23;;;;;;;;;;4383210;32;20249;-56
2020/12/22 08:17:19;;;;;;;46.33;26.77;;;;;;;;;;4382850;32;20198;-56
2020/12/22 08:19:45;;;;;;;56.33;31.57;;;;;;;;;;4376009;32;20265;-56
2020/12/22 08:22:15;;;;;;;26.33;17.43;;;;;;;;;;4384653;32;20583;-56
2020/12/22 08:24:41;;;;;;;38.43;24.10;;;;;;;;;;4368838;32;20295;-60
2020/12/22 08:27:10;;;;;;;37.13;21.73;;;;;;;;;;4419449;27;20268;-50
2020/12/22 08:29:38;;;;;;;36.27;21.47;;;;;;;;;;4386552;32;20214;-52
2020/12/22 08:32:05;;;;;;;33.93;22.83;;;;;;;;;;4375289;32;20226;-51
2020/12/22 08:34:31;;;;;;;40.53;27.77;;;;;;;;;;4374568;32;20214;-51
2020/12/22 08:36:57;;;;;;;38.77;24.90;;;;;;;;;;4369984;32;20232;-52
2020/12/22 08:39:25;;;;;;;38.90;27.33;;;;;;;;;;4375703;32;20380;-53
2020/12/22 08:41:55;;;;;;;36.97;22.17;;;;;;;;;;4366042;32;20641;-52
2020/12/22 08:44:22;;;;;;;46.23;29.07;;;;;;;;;;4376957;32;20269;-52
2020/12/22 08:46:49;;;;;;;49.73;29.03;;;;;;;;;;4364501;32;20245;-51
2020/12/22 08:49:16;;;;;;;201.10;124.70;;;;;;;;;;4371936;32;20391;-52
2020/12/22 08:51:44;;;;;;;97.13;60.57;;;;;;;;;;4363007;32;20656;-51
2020/12/22 08:54:11;;;;;;;58.33;34.97;;;;;;;;;;4368985;32;20214;-51
2020/12/22 08:56:37;;;;;;;56.03;31.43;;;;;;;;;;4370087;32;20361;-51
2020/12/22 08:59:05;;;;;;;69.43;42.90;;;;;;;;;;4374906;32;20273;-52
2020/12/22 09:01:51;;;;;;;55.90;35.80;;;;;;;;;;4372141;32;20207;-52
2020/12/22 09:04:16;;;;;;;67.13;42.17;;;;;;;;;;4360861;32;20238;-52
2020/12/22 09:06:44;;;;;;;57.97;33.60;;;;;;;;;;4375663;32;20290;-52
2020/12/22 09:09:13;;;;;;;60.43;40.70;;;;;;;;;;4361387;32;20218;-52
2020/12/22 09:11:39;;;;;;;51.43;34.97;;;;;;;;;;4380416;32;20226;-52
2020/12/22 09:14:12;;;;;;;59.30;39.33;;;;;;;;;;4379302;32;20222;-51
2020/12/22 09:16:56;;;;;;;55.93;33.50;;;;;;;;;;4368536;32;20562;-52
2020/12/22 09:19:49;;;;;;;50.20;33.70;;;;;;;;;;4362987;32;20702;-52
2020/12/22 09:22:20;;;;;;;63.13;39.80;;;;;;;;;;4362170;32;20264;-52
2020/12/22 09:24:49;;;;;;;69.03;40.07;;;;;;;;;;4380693;32;20207;-52
2020/12/22 09:27:15;;;;;;;331.67;157.63;;;;;;;;;;4372127;32;20214;-52
2020/12/22 09:29:42;;;;;;;148.40;88.17;;;;;;;;;;4369438;32;20202;-52
2020/12/22 09:32:10;;;;;;;64.30;42.47;;;;;;;;;;4353267;32;20875;-52
2020/12/22 09:34:37;;;;;;;74.67;41.90;;;;;;;;;;4378493;32;20194;-51
2020/12/22 09:37:07;;;;;;;95.53;43.43;;;;;;;;;;4375878;32;20304;-51
2020/12/22 09:39:34;;;;;;;60.33;38.40;;;;;;;;;;4374034;32;20733;-52
2020/12/22 09:42:00;;;;;;;61.27;41.53;;;;;;;;;;4374012;32;20245;-52
2020/12/22 09:44:26;;;;;;;58.87;39.27;;;;;;;;;;4381861;32;20247;-51
2020/12/22 09:46:54;;;;;;;58.53;38.13;;;;;;;;;;4374417;32;20748;-52
2020/12/22 09:49:21;;;;;;;67.80;42.33;;;;;;;;;;4373538;32;20206;-53
2020/12/22 09:51:46;;;;;;;64.70;42.57;;;;;;;;;;4370100;32;20233;-52
2020/12/22 09:54:12;;;;;;;75.10;50.13;;;;;;;;;;4370348;32;20336;-52
2020/12/22 09:56:38;;;;;;;74.03;49.10;;;;;;;;;;4362747;32;20341;-52
2020/12/22 09:59:04;;;;;;;78.07;51.07;;;;;;;;;;4355553;32;20244;-52
2020/12/22 10:01:30;;;;;;;83.90;53.80;;;;;;;;;;4371379;32;20344;-52
2020/12/22 10:03:56;;;;;;;62.17;38.83;;;;;;;;;;4359020;32;20238;-52
2020/12/22 10:06:23;;;;;;;53.17;35.13;;;;;;;;;;4374853;32;20303;-51
2020/12/22 10:08:50;;;;;;;66.37;43.80;;;;;;;;;;4363749;32;20329;-52
2020/12/22 10:11:16;;;;;;;75.10;44.93;;;;;;;;;;4370608;32;20242;-52
2020/12/22 10:13:42;;;;;;;74.53;49.07;;;;;;;;;;4356393;32;20324;-52
2020/12/22 10:16:13;;;;;;;74.50;48.57;;;;;;;;;;4373961;32;20293;-52
2020/12/22 10:18:39;;;;;;;76.83;49.73;;;;;;;;;;4371354;32;20274;-53
2020/12/22 10:21:12;;;;;;;73.60;48.40;;;;;;;;;;4366996;32;20470;-52
2020/12/22 10:23:39;;;;;;;64.60;41.63;;;;;;;;;;4358427;32;20269;-52
2020/12/22 10:26:12;;;;;;;63.37;40.10;;;;;;;;;;4372925;32;20225;-53
2020/12/22 10:28:40;;;;;;;63.97;41.43;;;;;;;;;;4363215;32;20609;-51
2020/12/22 10:31:11;;;;;;;75.80;46.40;;;;;;;;;;4372463;32;20214;-52
2020/12/22 10:33:36;;;;;;;67.73;44.60;;;;;;;;;;4375956;32;20210;-51
2020/12/22 10:36:03;;;;;;;75.07;49.60;;;;;;;;;;4369923;32;20347;-51
2020/12/22 10:38:29;;;;;;;94.07;57.97;;;;;;;;;;4369023;32;20323;-51
2020/12/22 10:40:54;;;;;;;82.03;52.77;;;;;;;;;;4371978;32;20290;-52
2020/12/22 10:43:20;;;;;;;94.93;57.80;;;;;;;;;;4355342;32;20725;-53
2020/12/22 10:45:45;;;;;;;82.90;52.17;;;;;;;;;;4368276;32;20284;-51
2020/12/22 10:48:11;;;;;;;87.27;54.57;;;;;;;;;;4370068;32;20246;-52
2020/12/22 10:50:37;;;;;;;81.30;47.43;;;;;;;;;;4369868;32;20261;-51
2020/12/22 10:53:07;;;;;;;77.00;51.90;;;;;;;;;;4369237;32;20210;-51
2020/12/22 10:55:33;;;;;;;79.73;49.10;;;;;;;;;;4370172;32;20324;-52
2020/12/22 10:57:59;;;;;;;85.67;51.43;;;;;;;;;;4362255;32;20218;-51
2020/12/22 11:00:24;;;;;;;82.87;51.80;;;;;;;;;;4359745;32;20641;-52
2020/12/22 11:02:53;;;;;;;81.20;52.93;;;;;;;;;;4372593;32;20710;-52
2020/12/22 11:08:07;;;;;;;59.80;37.83;;;;;;;;;;4370752;32;20284;-51
2020/12/22 11:10:33;;;;;;;57.27;37.27;;;;;;;;;;4370660;32;20300;-52
2020/12/22 11:12:59;;;;;;;60.27;39.63;;;;;;;;;;4360179;32;20567;-50
2020/12/22 11:15:24;;;;;;;64.47;39.60;;;;;;;;;;4375077;32;20228;-51
2020/12/22 11:17:50;;;;;;;56.63;34.83;;;;;;;;;;4367323;32;20246;-52
2020/12/22 11:20:16;;;;;;;61.77;37.73;;;;;;;;;;4362513;32;20650;-51
2020/12/22 11:22:41;;;;;;;70.97;41.40;;;;;;;;;;4371036;32;20218;-51
2020/12/22 11:25:06;;;;;;;62.30;41.47;;;;;;;;;;4354473;32;20831;-52
2020/12/22 11:27:32;;;;;;;64.80;38.67;;;;;;;;;;4346896;32;20333;-51
2020/12/22 11:29:57;;;;;;;66.63;40.87;;;;;;;;;;4355743;32;20360;-51
2020/12/22 11:32:23;;;;;;;64.57;40.40;;;;;;;;;;4367232;32;20666;-51
2020/12/22 11:34:48;;;;;;;61.90;39.00;;;;;;;;;;4360692;32;20372;-51
2020/12/22 11:37:14;;;;;;;60.23;39.10;;;;;;;;;;4372538;32;20331;-51
2020/12/22 11:39:39;;;;;;;71.67;42.20;;;;;;;;;;4362986;32;20214;-51
2020/12/22 11:42:06;;;;;;;74.63;43.27;;;;;;;;;;4366617;32;20215;-50
2020/12/22 11:44:31;;;;;;;66.33;42.67;;;;;;;;;;4365148;32;20226;-51
2020/12/22 11:46:57;;;;;;;79.20;44.00;;;;;;;;;;4362410;32;20580;-50
2020/12/22 11:49:24;;;;;;;69.40;42.80;;;;;;;;;;4352183;32;20332;-52
2020/12/22 11:51:59;;;;;;;67.70;40.97;;;;;;;;;;4365834;32;20225;-51
2020/12/22 11:54:24;;;;;;;65.67;44.87;;;;;;;;;;4369565;32;20261;-50
2020/12/22 11:56:51;;;;;;;75.57;45.27;;;;;;;;;;4356160;32;20767;-51
2020/12/22 11:59:18;;;;;;;73.87;46.63;;;;;;;;;;4355860;32;20693;-51
2020/12/22 12:01:46;;;;;;;143.70;85.20;;;;;;;;;;4371722;32;20670;-51
2020/12/22 12:04:12;;;;;;;83.53;50.03;;;;;;;;;;4372433;32;20392;-50
2020/12/22 12:06:47;;;;;;;86.53;54.63;;;;;;;;;;4371158;32;20352;-51
2020/12/22 12:09:16;;;;;;;64.23;42.20;;;;;;;;;;4371075;32;20531;-50
2020/12/22 12:11:47;;;;;;;73.17;41.87;;;;;;;;;;4371543;32;20451;-51
2020/12/22 12:14:13;;;;;;;69.20;41.77;;;;;;;;;;4358501;32;20246;-51
2020/12/22 12:16:39;;;;;;;66.50;41.60;;;;;;;;;;4357792;32;20293;-51
2020/12/22 12:19:04;;;;;;;69.50;43.80;;;;;;;;;;4341271;32;20234;-51
2020/12/22 12:21:29;;;;;;;64.23;43.33;;;;;;;;;;4369163;32;20321;-51
2020/12/22 12:23:55;;;;;;;65.03;39.43;;;;;;;;;;4371897;32;20281;-51
2020/12/22 12:26:23;;;;;;;64.30;41.33;;;;;;;;;;4361288;32;20435;-51
2020/12/22 12:28:49;;;;;;;69.40;43.27;;;;;;;;;;4371228;32;20227;-51
2020/12/22 12:31:15;;;;;;;80.77;45.67;;;;;;;;;;4371858;32;20272;-51
2020/12/22 12:33:41;;;;;;;70.40;43.20;;;;;;;;;;4376539;32;20225;-51
2020/12/22 12:36:07;;;;;;;77.33;46.17;;;;;;;;;;4368947;32;20305;-50
2020/12/22 12:38:32;;;;;;;82.13;48.33;;;;;;;;;;4362777;32;20928;-51
2020/12/22 12:40:58;;;;;;;77.93;49.47;;;;;;;;;;4360733;32;20711;-52
2020/12/22 12:43:23;;;;;;;87.30;52.30;;;;;;;;;;4346958;32;20702;-51
2020/12/22 12:45:49;;;;;;;82.80;53.33;;;;;;;;;;4364772;32;20236;-50
2020/12/22 12:48:14;;;;;;;97.20;52.73;;;;;;;;;;4342820;32;20702;-50
2020/12/22 12:50:40;;;;;;;98.87;61.87;;;;;;;;;;4349317;32;20659;-51
2020/12/22 12:53:05;;;;;;;94.83;58.57;;;;;;;;;;4356391;32;20240;-50
2020/12/22 12:55:31;;;;;;;122.60;73.30;;;;;;;;;;4366113;32;20339;-51
2020/12/22 12:57:56;;;;;;;171.17;96.77;;;;;;;;;;4368780;32;20698;-50
2020/12/22 13:00:22;;;;;;;117.27;70.23;;;;;;;;;;4366670;32;20722;-50
2020/12/22 13:02:48;;;;;;;116.20;68.40;;;;;;;;;;4363797;32;20686;-51
2020/12/22 13:05:13;;;;;;;96.80;61.30;;;;;;;;;;4356015;32;20325;-51
2020/12/22 13:07:39;;;;;;;143.93;83.20;;;;;;;;;;4359470;32;20202;-49
2020/12/22 13:10:05;;;;;;;125.70;73.93;;;;;;;;;;4353724;32;20285;-51
2020/12/22 13:12:31;;;;;;;117.60;67.73;;;;;;;;;;4370449;32;20338;-51
2020/12/22 13:14:56;;;;;;;105.33;63.00;;;;;;;;;;4374482;32;20784;-51
2020/12/22 13:17:22;;;;;;;108.23;60.97;;;;;;;;;;4374075;32;20663;-50
2020/12/22 13:19:47;;;;;;;110.80;63.50;;;;;;;;;;4374043;32;20693;-51
2020/12/22 13:22:13;;;;;;;118.37;63.17;;;;;;;;;;4372834;32;20221;-50
2020/12/22 13:24:39;;;;;;;105.20;59.30;;;;;;;;;;4374367;32;20293;-51
2020/12/22 13:27:05;;;;;;;118.67;70.47;;;;;;;;;;4374016;32;20241;-50
2020/12/22 13:29:30;;;;;;;112.57;65.97;;;;;;;;;;4373267;32;20666;-50
2020/12/22 13:31:56;;;;;;;113.60;64.90;;;;;;;;;;4369539;32;20301;-50
2020/12/22 13:34:21;;;;;;;113.57;63.20;;;;;;;;;;4375696;32;20557;-50
2020/12/22 13:36:51;;;;;;;100.63;59.93;;;;;;;;;;4373864;32;20233;-50
2020/12/22 13:39:20;;;;;;;107.40;62.47;;;;;;;;;;4360182;32;20225;-51
2020/12/22 13:41:51;;;;;;;117.30;74.23;;;;;;;;;;4373757;32;20221;-50
2020/12/22 13:44:18;;;;;;;111.80;67.60;;;;;;;;;;4373422;32;20241;-51
2020/12/22 13:46:44;;;;;;;112.87;66.97;;;;;;;;;;4369326;32;20310;-50
2020/12/22 13:49:12;;;;;;;129.43;73.13;;;;;;;;;;4377303;32;20205;-50
2020/12/22 13:51:38;;;;;;;122.47;71.37;;;;;;;;;;4368280;32;20317;-50
2020/12/22 13:54:04;;;;;;;127.83;75.37;;;;;;;;;;4372494;32;20276;-51
2020/12/22 13:56:30;;;;;;;135.13;76.83;;;;;;;;;;4341718;32;20327;-50
2020/12/22 13:58:56;;;;;;;141.90;80.60;;;;;;;;;;4368302;32;20269;-50
2020/12/22 14:01:26;;;;;;;170.37;95.93;;;;;;;;;;4371957;32;20351;-51
2020/12/22 14:03:51;;;;;;;155.57;85.07;;;;;;;;;;4370696;32;22199;-51
2020/12/22 14:06:24;;;;;;;143.93;84.33;;;;;;;;;;4372554;32;20717;-50
2020/12/22 14:08:50;;;;;;;146.83;82.60;;;;;;;;;;4367455;32;20293;-51
2020/12/22 14:11:18;;;;;;;157.87;93.33;;;;;;;;;;4367235;32;20291;-56
2020/12/22 14:13:47;;;;;;;174.97;92.57;;;;;;;;;;4370035;32;20265;-55
2020/12/22 14:16:14;;;;;;;154.33;88.43;;;;;;;;;;4356237;32;20298;-56